sensor_id;sensor_type;location;lat;lon;timestamp;P1;durP1;ratioP1;P2;durP2;ratioP2
45784;SDS011;31489;51.404;5.474;2023-12-20T00:01:22;11.07;;;3.38;;
45784;SDS011;31489;51.404;5.474;2023-12-20T00:03:48;11.80;;;3.00;;
45784;SDS011;31489;51.404;5.474;2023-12-20T00:06:13;12.68;;;2.97;;
45784;SDS011;31489;51.404;5.474;2023-12-20T00:08:39;10.52;;;2.70;;
45784;SDS011;31489;51.404;5.474;2023-12-20T00:11:05;11.85;;;3.10;;
45784;SDS011;31489;51.404;5.474;2023-12-20T00:13:30;11.23;;;3.08;;
45784;SDS011;31489;51.404;5.474;2023-12-20T00:15:56;11.02;;;2.92;;
45784;SDS011;31489;51.404;5.474;2023-12-20T00:18:21;16.88;;;3.58;;
45784;SDS011;31489;51.404;5.474;2023-12-20T00:20:47;12.40;;;3.30;;
45784;SDS011;31489;51.404;5.474;2023-12-20T00:23:13;15.52;;;2.85;;
45784;SDS011;31489;51.404;5.474;2023-12-20T00:25:39;12.07;;;2.28;;
45784;SDS011;31489;51.404;5.474;2023-12-20T00:28:04;10.25;;;2.20;;
45784;SDS011;31489;51.404;5.474;2023-12-20T00:30:30;10.32;;;2.53;;
45784;SDS011;31489;51.404;5.474;2023-12-20T00:32:56;8.15;;;2.22;;
45784;SDS011;31489;51.404;5.474;2023-12-20T00:35:21;10.48;;;2.28;;
45784;SDS011;31489;51.404;5.474;2023-12-20T00:37:47;12.25;;;2.10;;
45784;SDS011;31489;51.404;5.474;2023-12-20T00:40:13;8.45;;;2.15;;
45784;SDS011;31489;51.404;5.474;2023-12-20T00:42:38;9.52;;;2.15;;
45784;SDS011;31489;51.404;5.474;2023-12-20T00:45:04;13.55;;;2.70;;
45784;SDS011;31489;51.404;5.474;2023-12-20T00:47:31;15.23;;;2.60;;
45784;SDS011;31489;51.404;5.474;2023-12-20T00:49:56;10.57;;;2.63;;
45784;SDS011;31489;51.404;5.474;2023-12-20T00:52:22;15.65;;;2.72;;
45784;SDS011;31489;51.404;5.474;2023-12-20T00:54:48;13.50;;;2.47;;
45784;SDS011;31489;51.404;5.474;2023-12-20T00:57:14;11.18;;;2.53;;
45784;SDS011;31489;51.404;5.474;2023-12-20T00:59:40;11.85;;;2.35;;
45784;SDS011;31489;51.404;5.474;2023-12-20T01:02:06;13.13;;;2.47;;
45784;SDS011;31489;51.404;5.474;2023-12-20T01:04:31;13.90;;;2.10;;
45784;SDS011;31489;51.404;5.474;2023-12-20T01:06:57;9.68;;;2.17;;
45784;SDS011;31489;51.404;5.474;2023-12-20T01:09:23;9.70;;;2.72;;
45784;SDS011;31489;51.404;5.474;2023-12-20T01:11:51;10.55;;;2.10;;
45784;SDS011;31489;51.404;5.474;2023-12-20T01:14:17;9.15;;;2.28;;
45784;SDS011;31489;51.404;5.474;2023-12-20T01:16:43;13.95;;;2.45;;
45784;SDS011;31489;51.404;5.474;2023-12-20T01:19:08;15.07;;;2.47;;
45784;SDS011;31489;51.404;5.474;2023-12-20T01:21:34;12.70;;;2.53;;
45784;SDS011;31489;51.404;5.474;2023-12-20T01:24:00;7.88;;;2.22;;
45784;SDS011;31489;51.404;5.474;2023-12-20T01:26:26;10.95;;;2.08;;
45784;SDS011;31489;51.404;5.474;2023-12-20T01:28:51;10.32;;;2.47;;
45784;SDS011;31489;51.404;5.474;2023-12-20T01:31:17;11.95;;;2.35;;
45784;SDS011;31489;51.404;5.474;2023-12-20T01:33:42;11.35;;;2.38;;
45784;SDS011;31489;51.404;5.474;2023-12-20T01:36:08;12.55;;;2.80;;
45784;SDS011;31489;51.404;5.474;2023-12-20T01:38:34;7.10;;;2.20;;
45784;SDS011;31489;51.404;5.474;2023-12-20T01:40:59;11.70;;;2.63;;
45784;SDS011;31489;51.404;5.474;2023-12-20T01:43:25;12.60;;;2.63;;
45784;SDS011;31489;51.404;5.474;2023-12-20T01:45:51;7.70;;;1.98;;
45784;SDS011;31489;51.404;5.474;2023-12-20T01:48:17;12.00;;;2.50;;
45784;SDS011;31489;51.404;5.474;2023-12-20T01:50:44;12.75;;;2.70;;
45784;SDS011;31489;51.404;5.474;2023-12-20T01:53:11;9.63;;;2.50;;
45784;SDS011;31489;51.404;5.474;2023-12-20T01:55:39;16.15;;;2.72;;
45784;SDS011;31489;51.404;5.474;2023-12-20T01:58:07;7.18;;;2.20;;
45784;SDS011;31489;51.404;5.474;2023-12-20T02:00:33;11.35;;;2.67;;
45784;SDS011;31489;51.404;5.474;2023-12-20T02:03:03;11.43;;;2.22;;
45784;SDS011;31489;51.404;5.474;2023-12-20T02:05:30;18.13;;;2.63;;
45784;SDS011;31489;51.404;5.474;2023-12-20T02:07:56;9.80;;;1.92;;
45784;SDS011;31489;51.404;5.474;2023-12-20T02:10:22;9.82;;;2.28;;
45784;SDS011;31489;51.404;5.474;2023-12-20T02:12:48;15.32;;;3.00;;
45784;SDS011;31489;51.404;5.474;2023-12-20T02:15:14;10.27;;;2.10;;
45784;SDS011;31489;51.404;5.474;2023-12-20T02:17:40;12.85;;;2.22;;
45784;SDS011;31489;51.404;5.474;2023-12-20T02:20:06;12.45;;;2.60;;
45784;SDS011;31489;51.404;5.474;2023-12-20T02:22:32;13.00;;;2.28;;
45784;SDS011;31489;51.404;5.474;2023-12-20T02:24:58;12.60;;;2.60;;
45784;SDS011;31489;51.404;5.474;2023-12-20T02:27:23;9.05;;;2.25;;
45784;SDS011;31489;51.404;5.474;2023-12-20T02:29:49;11.70;;;2.33;;
45784;SDS011;31489;51.404;5.474;2023-12-20T02:32:16;14.88;;;2.85;;
45784;SDS011;31489;51.404;5.474;2023-12-20T02:34:47;10.93;;;3.00;;
45784;SDS011;31489;51.404;5.474;2023-12-20T02:37:13;10.43;;;2.40;;
45784;SDS011;31489;51.404;5.474;2023-12-20T02:39:39;9.70;;;2.20;;
45784;SDS011;31489;51.404;5.474;2023-12-20T02:42:04;15.73;;;2.65;;
45784;SDS011;31489;51.404;5.474;2023-12-20T02:44:30;10.43;;;2.75;;
45784;SDS011;31489;51.404;5.474;2023-12-20T02:46:56;13.60;;;2.60;;
45784;SDS011;31489;51.404;5.474;2023-12-20T02:49:21;10.88;;;2.60;;
45784;SDS011;31489;51.404;5.474;2023-12-20T02:51:47;10.90;;;2.67;;
45784;SDS011;31489;51.404;5.474;2023-12-20T02:54:13;10.45;;;2.47;;
45784;SDS011;31489;51.404;5.474;2023-12-20T02:56:38;14.30;;;2.70;;
45784;SDS011;31489;51.404;5.474;2023-12-20T02:59:04;15.95;;;2.90;;
45784;SDS011;31489;51.404;5.474;2023-12-20T03:01:31;10.77;;;2.65;;
45784;SDS011;31489;51.404;5.474;2023-12-20T03:03:56;13.38;;;3.17;;
45784;SDS011;31489;51.404;5.474;2023-12-20T03:06:22;15.80;;;3.42;;
45784;SDS011;31489;51.404;5.474;2023-12-20T03:08:48;13.43;;;3.22;;
45784;SDS011;31489;51.404;5.474;2023-12-20T03:11:14;15.52;;;3.67;;
45784;SDS011;31489;51.404;5.474;2023-12-20T03:13:39;14.52;;;3.00;;
45784;SDS011;31489;51.404;5.474;2023-12-20T03:16:09;9.63;;;2.90;;
45784;SDS011;31489;51.404;5.474;2023-12-20T03:18:37;14.52;;;2.88;;
45784;SDS011;31489;51.404;5.474;2023-12-20T03:21:03;11.38;;;3.17;;
45784;SDS011;31489;51.404;5.474;2023-12-20T03:23:30;13.27;;;3.58;;
45784;SDS011;31489;51.404;5.474;2023-12-20T03:25:57;12.23;;;3.38;;
45784;SDS011;31489;51.404;5.474;2023-12-20T03:28:23;16.77;;;3.67;;
45784;SDS011;31489;51.404;5.474;2023-12-20T03:30:49;12.77;;;3.22;;
45784;SDS011;31489;51.404;5.474;2023-12-20T03:33:14;19.15;;;3.35;;
45784;SDS011;31489;51.404;5.474;2023-12-20T03:35:40;14.10;;;3.47;;
45784;SDS011;31489;51.404;5.474;2023-12-20T03:38:06;14.90;;;4.28;;
45784;SDS011;31489;51.404;5.474;2023-12-20T03:40:32;13.45;;;3.50;;
45784;SDS011;31489;51.404;5.474;2023-12-20T03:42:58;14.18;;;4.22;;
45784;SDS011;31489;51.404;5.474;2023-12-20T03:45:24;15.35;;;4.25;;
45784;SDS011;31489;51.404;5.474;2023-12-20T03:47:49;12.05;;;3.83;;
45784;SDS011;31489;51.404;5.474;2023-12-20T03:50:20;8.35;;;3.63;;
45784;SDS011;31489;51.404;5.474;2023-12-20T03:52:46;12.57;;;3.55;;
45784;SDS011;31489;51.404;5.474;2023-12-20T03:55:12;13.63;;;3.45;;
45784;SDS011;31489;51.404;5.474;2023-12-20T03:57:38;15.75;;;3.92;;
45784;SDS011;31489;51.404;5.474;2023-12-20T04:00:03;12.25;;;3.97;;
45784;SDS011;31489;51.404;5.474;2023-12-20T04:02:30;12.32;;;3.75;;
45784;SDS011;31489;51.404;5.474;2023-12-20T04:04:56;12.55;;;3.80;;
45784;SDS011;31489;51.404;5.474;2023-12-20T04:07:21;12.57;;;3.53;;
45784;SDS011;31489;51.404;5.474;2023-12-20T04:09:47;12.90;;;3.45;;
45784;SDS011;31489;51.404;5.474;2023-12-20T04:12:13;16.58;;;3.70;;
45784;SDS011;31489;51.404;5.474;2023-12-20T04:14:38;14.73;;;3.80;;
45784;SDS011;31489;51.404;5.474;2023-12-20T04:17:05;14.32;;;4.30;;
45784;SDS011;31489;51.404;5.474;2023-12-20T04:19:30;15.77;;;4.30;;
45784;SDS011;31489;51.404;5.474;2023-12-20T04:21:56;14.63;;;4.65;;
45784;SDS011;31489;51.404;5.474;2023-12-20T04:24:22;12.65;;;4.03;;
45784;SDS011;31489;51.404;5.474;2023-12-20T04:26:47;18.58;;;4.05;;
45784;SDS011;31489;51.404;5.474;2023-12-20T04:29:13;17.80;;;4.88;;
45784;SDS011;31489;51.404;5.474;2023-12-20T04:31:39;14.20;;;3.70;;
45784;SDS011;31489;51.404;5.474;2023-12-20T04:34:04;20.02;;;4.20;;
45784;SDS011;31489;51.404;5.474;2023-12-20T04:36:30;12.57;;;3.42;;
45784;SDS011;31489;51.404;5.474;2023-12-20T04:38:56;11.75;;;3.90;;
45784;SDS011;31489;51.404;5.474;2023-12-20T04:41:21;16.45;;;4.10;;
45784;SDS011;31489;51.404;5.474;2023-12-20T04:43:47;12.43;;;3.33;;
45784;SDS011;31489;51.404;5.474;2023-12-20T04:46:13;13.73;;;4.60;;
45784;SDS011;31489;51.404;5.474;2023-12-20T04:48:38;22.95;;;4.47;;
45784;SDS011;31489;51.404;5.474;2023-12-20T04:51:04;13.43;;;4.20;;
45784;SDS011;31489;51.404;5.474;2023-12-20T04:53:31;15.02;;;4.32;;
45784;SDS011;31489;51.404;5.474;2023-12-20T04:55:56;13.48;;;4.70;;
45784;SDS011;31489;51.404;5.474;2023-12-20T04:58:22;13.98;;;4.18;;
45784;SDS011;31489;51.404;5.474;2023-12-20T05:00:47;21.58;;;4.30;;
45784;SDS011;31489;51.404;5.474;2023-12-20T05:03:13;16.83;;;4.25;;
45784;SDS011;31489;51.404;5.474;2023-12-20T05:05:39;12.35;;;4.25;;
45784;SDS011;31489;51.404;5.474;2023-12-20T05:08:05;18.15;;;4.65;;
45784;SDS011;31489;51.404;5.474;2023-12-20T05:10:30;16.90;;;4.43;;
45784;SDS011;31489;51.404;5.474;2023-12-20T05:12:56;21.50;;;4.80;;
45784;SDS011;31489;51.404;5.474;2023-12-20T05:15:22;13.27;;;3.90;;
45784;SDS011;31489;51.404;5.474;2023-12-20T05:17:47;15.98;;;3.95;;
45784;SDS011;31489;51.404;5.474;2023-12-20T05:20:13;12.80;;;3.72;;
45784;SDS011;31489;51.404;5.474;2023-12-20T05:22:41;18.02;;;4.05;;
45784;SDS011;31489;51.404;5.474;2023-12-20T05:25:06;25.67;;;4.43;;
45784;SDS011;31489;51.404;5.474;2023-12-20T05:27:32;30.48;;;4.75;;
45784;SDS011;31489;51.404;5.474;2023-12-20T05:29:58;18.77;;;3.88;;
45784;SDS011;31489;51.404;5.474;2023-12-20T05:32:23;11.20;;;3.38;;
45784;SDS011;31489;51.404;5.474;2023-12-20T05:34:50;13.55;;;3.50;;
45784;SDS011;31489;51.404;5.474;2023-12-20T05:37:15;14.65;;;3.38;;
45784;SDS011;31489;51.404;5.474;2023-12-20T05:39:41;12.93;;;3.50;;
45784;SDS011;31489;51.404;5.474;2023-12-20T05:42:06;19.83;;;4.18;;
45784;SDS011;31489;51.404;5.474;2023-12-20T05:44:32;13.10;;;3.72;;
45784;SDS011;31489;51.404;5.474;2023-12-20T05:46:58;14.45;;;3.75;;
45784;SDS011;31489;51.404;5.474;2023-12-20T05:49:23;16.10;;;3.85;;
45784;SDS011;31489;51.404;5.474;2023-12-20T05:51:52;17.67;;;4.07;;
45784;SDS011;31489;51.404;5.474;2023-12-20T05:54:17;11.05;;;2.97;;
45784;SDS011;31489;51.404;5.474;2023-12-20T05:56:43;21.88;;;6.05;;
45784;SDS011;31489;51.404;5.474;2023-12-20T05:59:09;17.27;;;4.15;;
45784;SDS011;31489;51.404;5.474;2023-12-20T06:01:34;19.67;;;4.18;;
45784;SDS011;31489;51.404;5.474;2023-12-20T06:04:00;12.18;;;3.67;;
45784;SDS011;31489;51.404;5.474;2023-12-20T06:06:25;12.90;;;3.80;;
45784;SDS011;31489;51.404;5.474;2023-12-20T06:08:51;13.68;;;3.70;;
45784;SDS011;31489;51.404;5.474;2023-12-20T06:11:17;15.63;;;4.25;;
45784;SDS011;31489;51.404;5.474;2023-12-20T06:13:42;12.13;;;3.30;;
45784;SDS011;31489;51.404;5.474;2023-12-20T06:16:08;16.80;;;3.42;;
45784;SDS011;31489;51.404;5.474;2023-12-20T06:18:33;15.77;;;4.28;;
45784;SDS011;31489;51.404;5.474;2023-12-20T06:20:59;16.10;;;4.15;;
45784;SDS011;31489;51.404;5.474;2023-12-20T06:23:25;17.50;;;3.50;;
45784;SDS011;31489;51.404;5.474;2023-12-20T06:25:52;12.88;;;3.40;;
45784;SDS011;31489;51.404;5.474;2023-12-20T06:28:17;20.55;;;4.63;;
45784;SDS011;31489;51.404;5.474;2023-12-20T06:30:43;15.25;;;3.70;;
45784;SDS011;31489;51.404;5.474;2023-12-20T06:33:09;13.85;;;3.17;;
45784;SDS011;31489;51.404;5.474;2023-12-20T06:35:36;14.63;;;3.42;;
45784;SDS011;31489;51.404;5.474;2023-12-20T06:38:02;19.13;;;3.50;;
45784;SDS011;31489;51.404;5.474;2023-12-20T06:40:28;17.55;;;4.05;;
45784;SDS011;31489;51.404;5.474;2023-12-20T06:42:53;17.40;;;4.05;;
45784;SDS011;31489;51.404;5.474;2023-12-20T06:45:19;15.30;;;3.88;;
45784;SDS011;31489;51.404;5.474;2023-12-20T06:47:45;15.13;;;3.60;;
45784;SDS011;31489;51.404;5.474;2023-12-20T06:50:10;16.80;;;3.30;;
45784;SDS011;31489;51.404;5.474;2023-12-20T06:52:36;17.45;;;4.18;;
45784;SDS011;31489;51.404;5.474;2023-12-20T06:55:02;16.65;;;3.63;;
45784;SDS011;31489;51.404;5.474;2023-12-20T06:57:29;21.95;;;3.55;;
45784;SDS011;31489;51.404;5.474;2023-12-20T06:59:54;16.15;;;3.58;;
45784;SDS011;31489;51.404;5.474;2023-12-20T07:02:20;13.93;;;4.07;;
45784;SDS011;31489;51.404;5.474;2023-12-20T07:04:47;24.75;;;3.58;;
45784;SDS011;31489;51.404;5.474;2023-12-20T07:07:13;20.10;;;3.83;;
45784;SDS011;31489;51.404;5.474;2023-12-20T07:09:38;13.82;;;3.63;;
45784;SDS011;31489;51.404;5.474;2023-12-20T07:12:06;11.45;;;3.10;;
45784;SDS011;31489;51.404;5.474;2023-12-20T07:14:31;12.68;;;3.30;;
45784;SDS011;31489;51.404;5.474;2023-12-20T07:16:57;13.85;;;3.30;;
45784;SDS011;31489;51.404;5.474;2023-12-20T07:19:23;16.67;;;4.03;;
45784;SDS011;31489;51.404;5.474;2023-12-20T07:21:48;21.63;;;3.55;;
45784;SDS011;31489;51.404;5.474;2023-12-20T07:24:14;17.00;;;3.47;;
45784;SDS011;31489;51.404;5.474;2023-12-20T07:26:40;16.98;;;3.85;;
45784;SDS011;31489;51.404;5.474;2023-12-20T07:29:05;14.82;;;3.58;;
45784;SDS011;31489;51.404;5.474;2023-12-20T07:31:31;17.83;;;3.80;;
45784;SDS011;31489;51.404;5.474;2023-12-20T07:33:57;15.55;;;3.70;;
45784;SDS011;31489;51.404;5.474;2023-12-20T07:36:23;19.52;;;4.28;;
45784;SDS011;31489;51.404;5.474;2023-12-20T07:38:49;14.73;;;3.08;;
45784;SDS011;31489;51.404;5.474;2023-12-20T07:41:14;11.98;;;3.80;;
45784;SDS011;31489;51.404;5.474;2023-12-20T07:43:46;11.98;;;3.38;;
45784;SDS011;31489;51.404;5.474;2023-12-20T07:46:11;14.25;;;3.30;;
45784;SDS011;31489;51.404;5.474;2023-12-20T07:48:40;15.18;;;3.13;;
45784;SDS011;31489;51.404;5.474;2023-12-20T07:51:08;18.75;;;3.78;;
45784;SDS011;31489;51.404;5.474;2023-12-20T07:53:34;18.92;;;3.63;;
45784;SDS011;31489;51.404;5.474;2023-12-20T07:56:12;13.35;;;3.63;;
45784;SDS011;31489;51.404;5.474;2023-12-20T07:58:42;15.70;;;3.50;;
45784;SDS011;31489;51.404;5.474;2023-12-20T08:01:08;18.00;;;3.75;;
45784;SDS011;31489;51.404;5.474;2023-12-20T08:03:35;19.90;;;3.30;;
45784;SDS011;31489;51.404;5.474;2023-12-20T08:06:01;15.02;;;3.60;;
45784;SDS011;31489;51.404;5.474;2023-12-20T08:08:27;17.13;;;3.55;;
45784;SDS011;31489;51.404;5.474;2023-12-20T08:10:56;16.70;;;3.33;;
45784;SDS011;31489;51.404;5.474;2023-12-20T08:13:25;13.05;;;3.30;;
45784;SDS011;31489;51.404;5.474;2023-12-20T08:15:51;15.35;;;3.83;;
45784;SDS011;31489;51.404;5.474;2023-12-20T08:18:18;18.02;;;3.92;;
45784;SDS011;31489;51.404;5.474;2023-12-20T08:20:43;16.15;;;4.00;;
45784;SDS011;31489;51.404;5.474;2023-12-20T08:23:09;18.63;;;3.40;;
45784;SDS011;31489;51.404;5.474;2023-12-20T08:25:35;20.45;;;3.90;;
45784;SDS011;31489;51.404;5.474;2023-12-20T08:28:02;15.65;;;3.17;;
45784;SDS011;31489;51.404;5.474;2023-12-20T08:30:29;14.57;;;3.80;;
45784;SDS011;31489;51.404;5.474;2023-12-20T08:32:56;12.50;;;4.13;;
45784;SDS011;31489;51.404;5.474;2023-12-20T08:35:21;14.85;;;3.33;;
45784;SDS011;31489;51.404;5.474;2023-12-20T08:37:47;23.60;;;3.67;;
45784;SDS011;31489;51.404;5.474;2023-12-20T08:40:13;17.70;;;3.45;;
45784;SDS011;31489;51.404;5.474;2023-12-20T08:42:38;20.10;;;4.10;;
45784;SDS011;31489;51.404;5.474;2023-12-20T08:45:04;17.90;;;3.83;;
45784;SDS011;31489;51.404;5.474;2023-12-20T08:47:30;15.43;;;3.40;;
45784;SDS011;31489;51.404;5.474;2023-12-20T08:49:56;12.75;;;3.20;;
45784;SDS011;31489;51.404;5.474;2023-12-20T08:52:24;14.93;;;3.08;;
45784;SDS011;31489;51.404;5.474;2023-12-20T08:54:50;15.93;;;3.17;;
45784;SDS011;31489;51.404;5.474;2023-12-20T08:57:20;11.95;;;3.20;;
45784;SDS011;31489;51.404;5.474;2023-12-20T08:59:52;16.80;;;4.00;;
45784;SDS011;31489;51.404;5.474;2023-12-20T09:02:17;13.13;;;3.50;;
45784;SDS011;31489;51.404;5.474;2023-12-20T09:04:43;15.27;;;3.42;;
45784;SDS011;31489;51.404;5.474;2023-12-20T09:07:24;17.42;;;3.80;;
45784;SDS011;31489;51.404;5.474;2023-12-20T09:09:50;13.90;;;3.10;;
45784;SDS011;31489;51.404;5.474;2023-12-20T09:12:20;13.65;;;2.92;;
45784;SDS011;31489;51.404;5.474;2023-12-20T09:14:46;15.73;;;3.42;;
45784;SDS011;31489;51.404;5.474;2023-12-20T09:17:12;16.35;;;4.40;;
45784;SDS011;31489;51.404;5.474;2023-12-20T09:19:38;15.15;;;3.10;;
45784;SDS011;31489;51.404;5.474;2023-12-20T09:22:04;13.13;;;3.70;;
45784;SDS011;31489;51.404;5.474;2023-12-20T09:24:33;14.40;;;3.22;;
45784;SDS011;31489;51.404;5.474;2023-12-20T09:26:59;13.35;;;3.50;;
45784;SDS011;31489;51.404;5.474;2023-12-20T09:29:24;11.65;;;3.10;;
45784;SDS011;31489;51.404;5.474;2023-12-20T09:31:50;10.73;;;3.00;;
45784;SDS011;31489;51.404;5.474;2023-12-20T09:34:16;11.50;;;3.08;;
45784;SDS011;31489;51.404;5.474;2023-12-20T09:36:44;18.98;;;3.78;;
45784;SDS011;31489;51.404;5.474;2023-12-20T09:39:16;21.05;;;4.03;;
45784;SDS011;31489;51.404;5.474;2023-12-20T09:44:30;10.93;;;2.95;;
45784;SDS011;31489;51.404;5.474;2023-12-20T09:46:58;17.08;;;3.15;;
45784;SDS011;31489;51.404;5.474;2023-12-20T09:49:25;17.02;;;4.05;;
45784;SDS011;31489;51.404;5.474;2023-12-20T09:51:53;12.85;;;2.88;;
45784;SDS011;31489;51.404;5.474;2023-12-20T09:54:20;15.43;;;3.55;;
45784;SDS011;31489;51.404;5.474;2023-12-20T09:56:46;10.93;;;3.20;;
45784;SDS011;31489;51.404;5.474;2023-12-20T09:59:12;12.43;;;3.30;;
45784;SDS011;31489;51.404;5.474;2023-12-20T10:01:39;13.00;;;3.20;;
45784;SDS011;31489;51.404;5.474;2023-12-20T10:04:06;19.27;;;3.50;;
45784;SDS011;31489;51.404;5.474;2023-12-20T10:06:37;16.48;;;3.10;;
45784;SDS011;31489;51.404;5.474;2023-12-20T10:09:06;12.07;;;3.10;;
45784;SDS011;31489;51.404;5.474;2023-12-20T10:11:32;14.90;;;2.75;;
45784;SDS011;31489;51.404;5.474;2023-12-20T10:14:00;16.92;;;3.30;;
45784;SDS011;31489;51.404;5.474;2023-12-20T10:16:26;31.42;;;4.85;;
45784;SDS011;31489;51.404;5.474;2023-12-20T10:18:56;12.68;;;3.58;;
45784;SDS011;31489;51.404;5.474;2023-12-20T10:21:22;13.57;;;3.25;;
45784;SDS011;31489;51.404;5.474;2023-12-20T10:23:48;14.77;;;3.10;;
45784;SDS011;31489;51.404;5.474;2023-12-20T10:26:23;15.38;;;3.42;;
45784;SDS011;31489;51.404;5.474;2023-12-20T10:31:28;13.50;;;3.80;;
45784;SDS011;31489;51.404;5.474;2023-12-20T10:33:58;14.02;;;3.25;;
45784;SDS011;31489;51.404;5.474;2023-12-20T10:36:25;15.82;;;3.05;;
45784;SDS011;31489;51.404;5.474;2023-12-20T10:38:52;12.88;;;2.90;;
45784;SDS011;31489;51.404;5.474;2023-12-20T10:41:20;11.23;;;3.42;;
45784;SDS011;31489;51.404;5.474;2023-12-20T10:43:51;17.60;;;3.17;;
45784;SDS011;31489;51.404;5.474;2023-12-20T10:46:17;15.40;;;3.25;;
45784;SDS011;31489;51.404;5.474;2023-12-20T10:48:45;17.73;;;3.17;;
45784;SDS011;31489;51.404;5.474;2023-12-20T10:51:11;13.43;;;3.30;;
45784;SDS011;31489;51.404;5.474;2023-12-20T10:53:42;18.42;;;3.30;;
45784;SDS011;31489;51.404;5.474;2023-12-20T10:56:08;13.85;;;2.90;;
45784;SDS011;31489;51.404;5.474;2023-12-20T10:58:41;12.98;;;3.30;;
45784;SDS011;31489;51.404;5.474;2023-12-20T11:01:10;9.82;;;3.05;;
45784;SDS011;31489;51.404;5.474;2023-12-20T11:03:41;14.95;;;3.17;;
45784;SDS011;31489;51.404;5.474;2023-12-20T11:06:19;10.27;;;2.70;;
45784;SDS011;31489;51.404;5.474;2023-12-20T11:08:53;14.57;;;3.58;;
45784;SDS011;31489;51.404;5.474;2023-12-20T11:11:44;19.60;;;3.53;;
45784;SDS011;31489;51.404;5.474;2023-12-20T11:17:06;15.70;;;3.72;;
45784;SDS011;31489;51.404;5.474;2023-12-20T11:19:33;17.05;;;3.30;;
45784;SDS011;31489;51.404;5.474;2023-12-20T11:22:03;9.07;;;2.70;;
45784;SDS011;31489;51.404;5.474;2023-12-20T11:24:30;14.07;;;3.00;;
45784;SDS011;31489;51.404;5.474;2023-12-20T11:26:57;14.00;;;3.72;;
45784;SDS011;31489;51.404;5.474;2023-12-20T11:29:35;14.25;;;3.05;;
45784;SDS011;31489;51.404;5.474;2023-12-20T11:32:02;16.50;;;3.50;;
45784;SDS011;31489;51.404;5.474;2023-12-20T11:34:48;11.07;;;3.10;;
45784;SDS011;31489;51.404;5.474;2023-12-20T11:37:22;16.08;;;3.25;;
45784;SDS011;31489;51.404;5.474;2023-12-20T11:39:54;10.45;;;3.15;;
45784;SDS011;31489;51.404;5.474;2023-12-20T11:42:21;12.60;;;2.80;;
45784;SDS011;31489;51.404;5.474;2023-12-20T11:44:47;11.48;;;2.72;;
45784;SDS011;31489;51.404;5.474;2023-12-20T11:47:13;14.57;;;3.35;;
45784;SDS011;31489;51.404;5.474;2023-12-20T11:49:40;15.63;;;3.20;;
45784;SDS011;31489;51.404;5.474;2023-12-20T11:52:06;15.75;;;3.63;;
45784;SDS011;31489;51.404;5.474;2023-12-20T11:54:32;13.93;;;3.53;;
45784;SDS011;31489;51.404;5.474;2023-12-20T11:56:58;15.65;;;3.75;;
45784;SDS011;31489;51.404;5.474;2023-12-20T11:59:23;15.57;;;3.28;;
45784;SDS011;31489;51.404;5.474;2023-12-20T12:01:51;20.77;;;4.35;;
45784;SDS011;31489;51.404;5.474;2023-12-20T12:04:17;16.27;;;3.78;;
45784;SDS011;31489;51.404;5.474;2023-12-20T12:06:44;11.90;;;3.30;;
45784;SDS011;31489;51.404;5.474;2023-12-20T12:09:10;11.63;;;3.90;;
45784;SDS011;31489;51.404;5.474;2023-12-20T12:11:36;13.23;;;3.45;;
45784;SDS011;31489;51.404;5.474;2023-12-20T12:14:02;17.23;;;3.95;;
45784;SDS011;31489;51.404;5.474;2023-12-20T12:16:28;15.70;;;3.83;;
45784;SDS011;31489;51.404;5.474;2023-12-20T12:18:55;16.38;;;3.90;;
45784;SDS011;31489;51.404;5.474;2023-12-20T12:21:22;19.05;;;3.70;;
45784;SDS011;31489;51.404;5.474;2023-12-20T12:23:47;15.63;;;3.60;;
45784;SDS011;31489;51.404;5.474;2023-12-20T12:26:13;11.60;;;3.33;;
45784;SDS011;31489;51.404;5.474;2023-12-20T12:28:42;16.75;;;3.45;;
45784;SDS011;31489;51.404;5.474;2023-12-20T12:31:14;8.40;;;2.80;;
45784;SDS011;31489;51.404;5.474;2023-12-20T12:33:43;15.43;;;3.40;;
45784;SDS011;31489;51.404;5.474;2023-12-20T12:36:09;12.27;;;3.22;;
45784;SDS011;31489;51.404;5.474;2023-12-20T12:38:36;13.73;;;3.17;;
45784;SDS011;31489;51.404;5.474;2023-12-20T12:41:02;19.60;;;4.35;;
45784;SDS011;31489;51.404;5.474;2023-12-20T12:43:28;10.85;;;3.17;;
45784;SDS011;31489;51.404;5.474;2023-12-20T12:45:53;13.73;;;3.97;;
45784;SDS011;31489;51.404;5.474;2023-12-20T12:48:22;16.85;;;4.50;;
45784;SDS011;31489;51.404;5.474;2023-12-20T12:50:48;18.20;;;4.57;;
45784;SDS011;31489;51.404;5.474;2023-12-20T12:53:16;15.13;;;3.75;;
45784;SDS011;31489;51.404;5.474;2023-12-20T12:55:42;11.57;;;3.85;;
45784;SDS011;31489;51.404;5.474;2023-12-20T12:58:08;14.80;;;4.10;;
45784;SDS011;31489;51.404;5.474;2023-12-20T13:00:33;18.67;;;4.80;;
45784;SDS011;31489;51.404;5.474;2023-12-20T13:02:59;13.75;;;3.95;;
45784;SDS011;31489;51.404;5.474;2023-12-20T13:05:25;16.10;;;4.32;;
45784;SDS011;31489;51.404;5.474;2023-12-20T13:07:50;15.38;;;4.30;;
45784;SDS011;31489;51.404;5.474;2023-12-20T13:10:16;17.00;;;4.40;;
45784;SDS011;31489;51.404;5.474;2023-12-20T13:12:43;15.57;;;4.43;;
45784;SDS011;31489;51.404;5.474;2023-12-20T13:15:08;16.83;;;4.65;;
45784;SDS011;31489;51.404;5.474;2023-12-20T13:17:34;11.45;;;3.88;;
45784;SDS011;31489;51.404;5.474;2023-12-20T13:20:00;11.38;;;3.75;;
45784;SDS011;31489;51.404;5.474;2023-12-20T13:22:25;19.63;;;4.57;;
45784;SDS011;31489;51.404;5.474;2023-12-20T13:24:51;20.15;;;4.35;;
45784;SDS011;31489;51.404;5.474;2023-12-20T13:27:17;18.55;;;4.55;;
45784;SDS011;31489;51.404;5.474;2023-12-20T13:29:43;20.15;;;4.13;;
45784;SDS011;31489;51.404;5.474;2023-12-20T13:32:08;16.85;;;3.85;;
45784;SDS011;31489;51.404;5.474;2023-12-20T13:34:34;13.13;;;3.67;;
45784;SDS011;31489;51.404;5.474;2023-12-20T13:37:00;11.85;;;3.47;;
45784;SDS011;31489;51.404;5.474;2023-12-20T13:39:26;17.27;;;4.28;;
45784;SDS011;31489;51.404;5.474;2023-12-20T13:41:54;10.95;;;3.13;;
45784;SDS011;31489;51.404;5.474;2023-12-20T13:44:20;10.13;;;3.58;;
45784;SDS011;31489;51.404;5.474;2023-12-20T13:46:45;14.93;;;3.78;;
45784;SDS011;31489;51.404;5.474;2023-12-20T13:49:11;12.82;;;3.45;;
45784;SDS011;31489;51.404;5.474;2023-12-20T13:51:37;12.98;;;4.38;;
45784;SDS011;31489;51.404;5.474;2023-12-20T13:54:03;14.05;;;3.50;;
45784;SDS011;31489;51.404;5.474;2023-12-20T13:56:29;16.10;;;3.97;;
45784;SDS011;31489;51.404;5.474;2023-12-20T13:58:55;18.58;;;3.75;;
45784;SDS011;31489;51.404;5.474;2023-12-20T14:01:20;15.55;;;3.65;;
45784;SDS011;31489;51.404;5.474;2023-12-20T14:03:46;15.07;;;3.63;;
45784;SDS011;31489;51.404;5.474;2023-12-20T14:06:12;16.02;;;3.55;;
45784;SDS011;31489;51.404;5.474;2023-12-20T14:08:41;13.38;;;3.65;;
45784;SDS011;31489;51.404;5.474;2023-12-20T14:11:10;13.45;;;3.83;;
45784;SDS011;31489;51.404;5.474;2023-12-20T14:13:36;15.25;;;3.38;;
45784;SDS011;31489;51.404;5.474;2023-12-20T14:16:01;12.95;;;3.42;;
45784;SDS011;31489;51.404;5.474;2023-12-20T14:18:28;14.02;;;3.72;;
45784;SDS011;31489;51.404;5.474;2023-12-20T14:20:55;16.45;;;3.58;;
45784;SDS011;31489;51.404;5.474;2023-12-20T14:23:21;11.27;;;3.20;;
45784;SDS011;31489;51.404;5.474;2023-12-20T14:25:48;11.85;;;3.03;;
45784;SDS011;31489;51.404;5.474;2023-12-20T14:28:14;14.38;;;3.65;;
45784;SDS011;31489;51.404;5.474;2023-12-20T14:30:40;17.58;;;3.50;;
45784;SDS011;31489;51.404;5.474;2023-12-20T14:33:06;13.93;;;3.50;;
45784;SDS011;31489;51.404;5.474;2023-12-20T14:35:32;14.68;;;3.47;;
45784;SDS011;31489;51.404;5.474;2023-12-20T14:37:57;10.65;;;3.33;;
45784;SDS011;31489;51.404;5.474;2023-12-20T14:40:23;13.60;;;3.03;;